Marfret Guyane — FNMV — position and weather

sailwx.info

Track history (hours):
 
Tides and Currents Weather Stations Pressure Air Temp Water Temp Dewpoint Dewpoint Depression Visibility Wind Speed Wind Dir Waves Ship Positions

Marfret Guyane

Last reported at 2014-Oct-11 01:33 UTC. Time now 2014-Nov-01 02:02 UTC.
Position N 17°52' W 063°05'.
Warning: this ship's position is 21 days out of date.

Length 170 m; draft 8.5 m.

Type: Ship (hazmat cat A). MMSI: 226324000.

Date/timePositionNaut miles runAvg speedWind from/ knotsBaromVisibWave heightAir tempDewpointWater temp
2014-Oct-11 01:33N 17°52' W 063°05'6 0.4
2014-Oct-10 09:33N 17°58' W 063°04'  
2014-Oct-05 11:14N 36°19' W 027°40'1418.4
2014-Oct-05 10:30N 36°26' W 027°25'1918.2
2014-Oct-05 09:28N 36°35' W 027°05'1718.3
2014-Oct-05 08:33N 36°44' W 026°47'1918.6
2014-Oct-05 07:34N 36°53' W 026°27'1918.8
2014-Oct-05 06:34N 37°03' W 026°07'1918.5
2014-Oct-05 05:34N 37°12' W 025°47'1918.9
2014-Oct-05 04:34N 37°22' W 025°26'1818.5
2014-Oct-05 03:33N 37°31' W 025°06'1918.6
2014-Oct-05 02:33N 37°43' W 024°48'1818.4
2014-Oct-05 01:33N 37°54' W 024°30'1818.5
2014-Oct-05 00:33N 38°06' W 024°12'2018.6
2014-Oct-04 23:30N 38°18' W 023°52'2418.7
2014-Oct-04 22:12N 38°33' W 023°28'1818.3
2014-Oct-04 21:13N 38°45' W 023°11'2118.6
2014-Oct-04 20:06N 38°59' W 022°50'85218.7
2014-Oct-02 22:34N 47°55' W 007°38'1818.5
2014-Oct-02 21:34N 48°07' W 007°17'1818.3
2014-Oct-02 20:33N 48°18' W 006°55'1818.2
2014-Oct-02 19:33N 48°30' W 006°34'1818.5
2014-Oct-02 18:33N 48°42' W 006°13'1918.7
2014-Oct-02 17:34N 48°54' W 005°51'20418.1
2014-Oct-02 06:19N 49°44' W 000°48'1520.4
2014-Oct-02 05:33N 49°38' W 000°26'1616.2
2014-Oct-02 04:33N 49°30' W 000°04'9 9.0
2014-Oct-02 03:33N 49°28' E 000°10'1 1.0
2014-Oct-02 02:31N 49°29' E 000°11'0 0.0
2014-Oct-02 01:31N 49°29' E 000°11'0 0.0
2014-Oct-02 00:31N 49°29' E 000°11'0 0.0
2014-Oct-01 23:28N 49°29' E 000°11'0 0.0
2014-Oct-01 22:31N 49°29' E 000°11'0 0.0
2014-Oct-01 21:31N 49°29' E 000°11'0 0.0
2014-Oct-01 20:31N 49°29' E 000°11'0 0.0
2014-Oct-01 19:31N 49°29' E 000°11'0 0.0
2014-Oct-01 18:28N 49°29' E 000°11'0 0.0
2014-Oct-01 17:31N 49°29' E 000°11'0 0.0
2014-Oct-01 16:31N 49°29' E 000°11'0 0.0
2014-Oct-01 15:31N 49°29' E 000°11'0 0.0
2014-Oct-01 14:31N 49°29' E 000°11'0 0.0
2014-Oct-01 13:31N 49°29' E 000°11'0 0.0
2014-Oct-01 12:31N 49°29' E 000°11'0 0.0
2014-Oct-01 11:31N 49°29' E 000°11'0 0.0
2014-Oct-01 10:31N 49°29' E 000°11'0 0.0
2014-Oct-01 09:31N 49°29' E 000°11'0 0.0
2014-Oct-01 08:31N 49°29' E 000°11'0 0.0
2014-Oct-01 07:30N 49°29' E 000°11'0 0.0
2014-Oct-01 06:33N 49°29' E 000°11'0 0.0
2014-Oct-01 05:30N 49°29' E 000°11'0 0.0
2014-Oct-01 04:33N 49°29' E 000°11'0 0.0
2014-Oct-01 03:33N 49°29' E 000°11'0 0.0
2014-Oct-01 02:33N 49°29' E 000°11'0 0.0
2014-Oct-01 01:33N 49°29' E 000°11'  
Track history (hours):
 
Tides and Currents Weather Stations Pressure Air Temp Water Temp Dewpoint Dewpoint Depression Visibility Wind Speed Wind Dir Waves Ship Positions

Marfret Guyane

Last reported at 2014-Oct-11 01:33 UTC. Time now 2014-Nov-01 02:02 UTC.
Position N 17°52' W 063°05'.
Warning: this ship's position is 21 days out of date.

Length 170 m; draft 8.5 m.

Type: Ship (hazmat cat A). MMSI: 226324000.

Date/timePositionNaut miles runAvg speedWind from/ knotsBaromVisibWave heightAir tempDewpointWater temp
2014-Oct-11 01:33N 17°52' W 063°05'6 0.4
2014-Oct-10 09:33N 17°58' W 063°04'  
2014-Oct-05 11:14N 36°19' W 027°40'1418.4
2014-Oct-05 10:30N 36°26' W 027°25'1918.2
2014-Oct-05 09:28N 36°35' W 027°05'1718.3
2014-Oct-05 08:33N 36°44' W 026°47'1918.6
2014-Oct-05 07:34N 36°53' W 026°27'1918.8
2014-Oct-05 06:34N 37°03' W 026°07'1918.5
2014-Oct-05 05:34N 37°12' W 025°47'1918.9
2014-Oct-05 04:34N 37°22' W 025°26'1818.5
2014-Oct-05 03:33N 37°31' W 025°06'1918.6
2014-Oct-05 02:33N 37°43' W 024°48'1818.4
2014-Oct-05 01:33N 37°54' W 024°30'1818.5
2014-Oct-05 00:33N 38°06' W 024°12'2018.6
2014-Oct-04 23:30N 38°18' W 023°52'2418.7
2014-Oct-04 22:12N 38°33' W 023°28'1818.3
2014-Oct-04 21:13N 38°45' W 023°11'2118.6
2014-Oct-04 20:06N 38°59' W 022°50'85218.7
2014-Oct-02 22:34N 47°55' W 007°38'1818.5
2014-Oct-02 21:34N 48°07' W 007°17'1818.3
2014-Oct-02 20:33N 48°18' W 006°55'1818.2
2014-Oct-02 19:33N 48°30' W 006°34'1818.5
2014-Oct-02 18:33N 48°42' W 006°13'1918.7
2014-Oct-02 17:34N 48°54' W 005°51'20418.1
2014-Oct-02 06:19N 49°44' W 000°48'1520.4
2014-Oct-02 05:33N 49°38' W 000°26'1616.2
2014-Oct-02 04:33N 49°30' W 000°04'9 9.0
2014-Oct-02 03:33N 49°28' E 000°10'1 1.0
2014-Oct-02 02:31N 49°29' E 000°11'0 0.0
2014-Oct-02 01:31N 49°29' E 000°11'0 0.0
2014-Oct-02 00:31N 49°29' E 000°11'0 0.0
2014-Oct-01 23:28N 49°29' E 000°11'0 0.0
2014-Oct-01 22:31N 49°29' E 000°11'0 0.0
2014-Oct-01 21:31N 49°29' E 000°11'0 0.0
2014-Oct-01 20:31N 49°29' E 000°11'0 0.0
2014-Oct-01 19:31N 49°29' E 000°11'0 0.0
2014-Oct-01 18:28N 49°29' E 000°11'0 0.0
2014-Oct-01 17:31N 49°29' E 000°11'0 0.0
2014-Oct-01 16:31N 49°29' E 000°11'0 0.0
2014-Oct-01 15:31N 49°29' E 000°11'0 0.0
2014-Oct-01 14:31N 49°29' E 000°11'0 0.0
2014-Oct-01 13:31N 49°29' E 000°11'0 0.0
2014-Oct-01 12:31N 49°29' E 000°11'0 0.0
2014-Oct-01 11:31N 49°29' E 000°11'0 0.0
2014-Oct-01 10:31N 49°29' E 000°11'0 0.0
2014-Oct-01 09:31N 49°29' E 000°11'0 0.0
2014-Oct-01 08:31N 49°29' E 000°11'0 0.0
2014-Oct-01 07:30N 49°29' E 000°11'0 0.0
2014-Oct-01 06:33N 49°29' E 000°11'0 0.0
2014-Oct-01 05:30N 49°29' E 000°11'0 0.0
2014-Oct-01 04:33N 49°29' E 000°11'0 0.0
2014-Oct-01 03:33N 49°29' E 000°11'0 0.0
2014-Oct-01 02:33N 49°29' E 000°11'0 0.0
2014-Oct-01 01:33N 49°29' E 000°11'  

Dump ship's entire track history